Time;durP1;ratioP1;P1;durP2;ratioP2;P2;SDS_P1;SDS_P2;PMS_P1;PMS_P2;Temp;Humidity;BMP_temperature;BMP_pressure;BME280_temperature;BME280_humidity;BME280_pressure;Samples;Min_cycle;Max_cycle;Signal;HPM_P1;HPM_P2
2023/09/07 00:02:17;;;;;;;6.47;5.30;;;;;;;;;;5054970;28;20372;-71
2023/09/07 00:04:43;;;;;;;7.28;5.70;;;;;;;;;;5036596;28;20119;-71
2023/09/07 00:07:08;;;;;;;8.05;6.22;;;;;;;;;;5055200;28;20155;-73
2023/09/07 00:09:34;;;;;;;6.90;5.57;;;;;;;;;;5055284;28;20037;-72
2023/09/07 00:11:59;;;;;;;8.23;5.63;;;;;;;;;;5054497;28;20080;-72
2023/09/07 00:14:24;;;;;;;8.27;5.47;;;;;;;;;;5036906;28;20492;-72
2023/09/07 00:16:50;;;;;;;6.70;5.70;;;;;;;;;;5036774;28;20425;-67
2023/09/07 00:19:15;;;;;;;7.35;5.60;;;;;;;;;;5055029;28;20012;-66
2023/09/07 00:21:41;;;;;;;6.65;5.85;;;;;;;;;;5036655;28;20472;-64
2023/09/07 00:24:06;;;;;;;8.38;5.53;;;;;;;;;;5054403;28;20041;-67
2023/09/07 00:26:32;;;;;;;6.78;5.93;;;;;;;;;;5054807;28;20033;-70
2023/09/07 00:28:58;;;;;;;5.78;5.25;;;;;;;;;;5054214;28;20082;-68
2023/09/07 00:31:23;;;;;;;6.53;5.32;;;;;;;;;;5054609;28;20071;-67
2023/09/07 00:33:48;;;;;;;7.10;5.38;;;;;;;;;;5036226;28;20570;-66
2023/09/07 00:36:14;;;;;;;7.47;5.43;;;;;;;;;;5036902;28;20465;-72
2023/09/07 00:38:40;;;;;;;6.63;5.47;;;;;;;;;;5054106;28;20029;-72
2023/09/07 00:41:05;;;;;;;6.72;5.03;;;;;;;;;;5053881;28;20059;-71
2023/09/07 00:43:30;;;;;;;7.50;5.55;;;;;;;;;;5036035;28;20021;-73
2023/09/07 00:45:56;;;;;;;5.63;5.05;;;;;;;;;;5036010;28;20029;-72
2023/09/07 00:48:21;;;;;;;6.82;5.35;;;;;;;;;;5036093;28;20033;-71
2023/09/07 00:50:47;;;;;;;5.13;4.63;;;;;;;;;;5035925;28;20463;-71
2023/09/07 00:53:13;;;;;;;6.28;5.00;;;;;;;;;;5036016;28;20116;-71
2023/09/07 00:55:39;;;;;;;6.47;5.20;;;;;;;;;;5035822;28;20396;-71
2023/09/07 00:58:04;;;;;;;6.43;5.25;;;;;;;;;;5053700;28;20086;-70
2023/09/07 01:00:30;;;;;;;6.20;4.65;;;;;;;;;;5035734;28;20028;-70
2023/09/07 01:02:55;;;;;;;7.85;5.03;;;;;;;;;;5054091;28;20491;-70
2023/09/07 01:05:26;;;;;;;5.93;4.97;;;;;;;;;;5053509;28;20082;-62
2023/09/07 01:07:57;;;;;;;5.75;5.13;;;;;;;;;;5053111;28;20489;-73
2023/09/07 01:10:23;;;;;;;7.43;5.60;;;;;;;;;;5035556;28;20031;-73
2023/09/07 01:12:48;;;;;;;5.93;5.32;;;;;;;;;;5035710;28;20111;-73
2023/09/07 01:15:13;;;;;;;6.32;5.13;;;;;;;;;;5054245;28;20037;-69
2023/09/07 01:17:39;;;;;;;7.07;5.32;;;;;;;;;;5036017;28;20032;-73
2023/09/07 01:20:11;;;;;;;8.18;4.97;;;;;;;;;;5053398;28;20461;-73
2023/09/07 01:22:37;;;;;;;7.00;5.13;;;;;;;;;;5036599;28;20049;-73
2023/09/07 01:25:04;;;;;;;6.65;5.13;;;;;;;;;;5039652;28;20029;-74
2023/09/07 01:27:30;;;;;;;5.97;4.72;;;;;;;;;;5040305;28;20029;-74
2023/09/07 01:29:56;;;;;;;5.68;4.70;;;;;;;;;;5058077;28;20032;-74
2023/09/07 01:32:22;;;;;;;7.13;5.13;;;;;;;;;;5057925;28;20373;-74
2023/09/07 01:34:48;;;;;;;6.35;4.88;;;;;;;;;;5057649;28;20029;-74
2023/09/07 01:37:13;;;;;;;5.82;4.68;;;;;;;;;;5057659;28;20492;-75
2023/09/07 01:39:39;;;;;;;6.90;5.45;;;;;;;;;;5039807;28;20032;-73
2023/09/07 01:42:04;;;;;;;6.88;5.43;;;;;;;;;;5039251;28;20469;-73
2023/09/07 01:44:30;;;;;;;5.93;5.30;;;;;;;;;;5022743;28;20476;-73
2023/09/07 01:46:55;;;;;;;6.22;4.85;;;;;;;;;;5039933;28;20487;-72
2023/09/07 01:49:22;;;;;;;5.13;4.70;;;;;;;;;;5039922;28;20397;-72
2023/09/07 01:51:47;;;;;;;6.05;4.70;;;;;;;;;;5057258;28;20029;-71
2023/09/07 01:54:12;;;;;;;8.80;4.90;;;;;;;;;;5039368;28;20027;-70
2023/09/07 01:56:40;;;;;;;5.60;5.05;;;;;;;;;;5056912;28;20377;-70
2023/09/07 01:59:06;;;;;;;5.28;4.57;;;;;;;;;;5039059;28;20040;-63
2023/09/07 02:01:34;;;;;;;5.88;4.95;;;;;;;;;;5039065;28;20029;-62
2023/09/07 02:03:59;;;;;;;5.50;4.93;;;;;;;;;;5038995;28;20033;-62
2023/09/07 02:06:24;;;;;;;6.13;4.90;;;;;;;;;;5056788;28;20139;-62
2023/09/07 02:08:50;;;;;;;7.22;4.93;;;;;;;;;;5039100;28;20388;-62
2023/09/07 02:11:15;;;;;;;6.00;4.57;;;;;;;;;;5038991;28;20025;-64
2023/09/07 02:13:41;;;;;;;5.28;4.53;;;;;;;;;;5039238;28;20082;-64
2023/09/07 02:16:07;;;;;;;4.72;4.32;;;;;;;;;;5056726;28;20108;-62
2023/09/07 02:18:33;;;;;;;6.30;5.05;;;;;;;;;;5039003;28;20025;-70
2023/09/07 02:21:02;;;;;;;5.45;4.95;;;;;;;;;;5038685;28;20235;-67
2023/09/07 02:23:28;;;;;;;5.47;4.95;;;;;;;;;;5056848;28;20056;-68
2023/09/07 02:25:54;;;;;;;5.53;4.78;;;;;;;;;;5056592;28;20125;-68
2023/09/07 02:28:19;;;;;;;6.57;4.63;;;;;;;;;;5038728;28;20033;-74
2023/09/07 02:30:44;;;;;;;6.20;5.50;;;;;;;;;;5038994;28;20051;-73
2023/09/07 02:33:10;;;;;;;5.75;5.03;;;;;;;;;;5038579;28;20026;-67
2023/09/07 02:35:39;;;;;;;8.13;5.05;;;;;;;;;;5037923;28;20083;-62
2023/09/07 02:38:05;;;;;;;5.85;5.05;;;;;;;;;;5038652;28;20059;-62
2023/09/07 02:40:31;;;;;;;6.72;4.65;;;;;;;;;;5038954;28;20045;-62
2023/09/07 02:42:56;;;;;;;6.22;4.95;;;;;;;;;;5039147;28;20127;-62
2023/09/07 02:45:22;;;;;;;5.22;4.80;;;;;;;;;;5038193;28;20036;-61
2023/09/07 02:47:50;;;;;;;5.38;4.70;;;;;;;;;;5038845;28;20425;-61
2023/09/07 02:50:17;;;;;;;6.03;5.20;;;;;;;;;;5038069;28;20545;-62
2023/09/07 02:52:43;;;;;;;7.15;5.30;;;;;;;;;;5039153;28;20021;-62
2023/09/07 02:55:08;;;;;;;7.28;5.13;;;;;;;;;;5056180;28;20381;-62
2023/09/07 02:57:35;;;;;;;6.35;5.18;;;;;;;;;;5038208;28;20029;-63
2023/09/07 03:00:01;;;;;;;6.22;4.95;;;;;;;;;;5039044;28;20033;-62
2023/09/07 03:02:27;;;;;;;5.35;4.78;;;;;;;;;;5012608;28;20077;-61
2023/09/07 03:04:53;;;;;;;5.90;5.30;;;;;;;;;;5022249;28;20037;-61
2023/09/07 03:07:18;;;;;;;5.32;4.53;;;;;;;;;;5027495;28;20050;-60
2023/09/07 03:09:44;;;;;;;6.80;5.03;;;;;;;;;;5029875;28;20551;-61
2023/09/07 03:12:09;;;;;;;7.20;5.32;;;;;;;;;;5006670;28;20044;-70
2023/09/07 03:14:35;;;;;;;6.68;4.82;;;;;;;;;;5007287;28;20025;-70
2023/09/07 03:17:00;;;;;;;5.93;4.78;;;;;;;;;;5007675;28;20377;-69
2023/09/07 03:19:26;;;;;;;7.38;5.35;;;;;;;;;;5006108;28;20394;-71
2023/09/07 03:21:52;;;;;;;6.03;5.13;;;;;;;;;;5008486;28;20065;-71
2023/09/07 03:24:17;;;;;;;7.07;5.13;;;;;;;;;;5003505;28;20393;-72
2023/09/07 03:26:43;;;;;;;5.22;4.72;;;;;;;;;;5007964;28;20076;-72
2023/09/07 03:29:09;;;;;;;5.43;4.82;;;;;;;;;;5006193;28;20512;-72
2023/09/07 03:31:35;;;;;;;5.22;4.68;;;;;;;;;;5006713;28;20033;-67
2023/09/07 03:34:03;;;;;;;5.22;4.70;;;;;;;;;;5025042;28;20037;-67
2023/09/07 03:36:28;;;;;;;6.88;5.22;;;;;;;;;;5026163;28;20021;-69
2023/09/07 03:38:54;;;;;;;7.03;5.05;;;;;;;;;;5025823;28;20082;-68
2023/09/07 03:41:19;;;;;;;5.82;4.70;;;;;;;;;;5008356;28;20029;-61
2023/09/07 03:43:49;;;;;;;6.55;4.72;;;;;;;;;;5007974;28;20041;-60
2023/09/07 03:46:14;;;;;;;5.95;4.72;;;;;;;;;;5005469;28;20029;-64
2023/09/07 03:48:40;;;;;;;4.97;4.50;;;;;;;;;;5024578;28;20029;-64
2023/09/07 03:51:06;;;;;;;5.10;4.60;;;;;;;;;;5005187;28;20037;-62
2023/09/07 03:53:31;;;;;;;6.78;4.68;;;;;;;;;;5019379;23;20052;-71
2023/09/07 03:55:57;;;;;;;4.78;4.07;;;;;;;;;;5051162;23;20065;-72
2023/09/07 04:01:06;;;;;;;8.48;4.72;;;;;;;;;;4997811;23;20417;-62
2023/09/07 04:03:34;;;;;;;4.88;4.45;;;;;;;;;;5023061;23;20188;-66
2023/09/07 04:06:00;;;;;;;4.85;4.45;;;;;;;;;;5051865;23;21064;-63
2023/09/07 04:08:25;;;;;;;6.18;4.85;;;;;;;;;;5034463;28;20389;-70
2023/09/07 04:10:50;;;;;;;9.65;4.65;;;;;;;;;;5034433;28;20374;-72
2023/09/07 04:13:17;;;;;;;9.90;5.35;;;;;;;;;;5016377;28;20029;-71
2023/09/07 04:15:43;;;;;;;7.63;5.28;;;;;;;;;;5035201;28;20028;-72
2023/09/07 04:18:12;;;;;;;6.60;5.45;;;;;;;;;;5016939;28;20117;-66
2023/09/07 04:20:39;;;;;;;6.75;5.18;;;;;;;;;;5016647;28;20480;-66
2023/09/07 04:23:05;;;;;;;6.72;5.90;;;;;;;;;;5034578;28;20072;-66
2023/09/07 04:25:32;;;;;;;6.57;5.70;;;;;;;;;;5017141;28;20029;-66
2023/09/07 04:27:57;;;;;;;6.32;5.45;;;;;;;;;;5015002;28;20106;-66
2023/09/07 04:30:24;;;;;;;7.80;5.68;;;;;;;;;;5015661;28;20650;-66
2023/09/07 04:32:49;;;;;;;5.85;5.25;;;;;;;;;;5015193;28;20113;-66
2023/09/07 04:35:15;;;;;;;5.25;4.82;;;;;;;;;;5033775;28;20117;-66
2023/09/07 04:37:44;;;;;;;6.80;5.00;;;;;;;;;;5015935;28;20159;-67
2023/09/07 04:40:10;;;;;;;5.50;4.68;;;;;;;;;;5015698;28;20056;-66
2023/09/07 04:42:36;;;;;;;7.05;5.25;;;;;;;;;;5015628;28;20061;-66
2023/09/07 04:45:01;;;;;;;6.55;5.40;;;;;;;;;;5032956;28;20049;-66
2023/09/07 04:47:27;;;;;;;6.75;5.55;;;;;;;;;;5015554;28;20385;-64
2023/09/07 04:49:52;;;;;;;5.53;5.00;;;;;;;;;;5015732;28;20025;-65
2023/09/07 04:52:20;;;;;;;5.63;5.03;;;;;;;;;;5015154;28;20057;-64
2023/09/07 04:54:45;;;;;;;6.57;5.75;;;;;;;;;;4999433;28;20098;-64
2023/09/07 04:57:13;;;;;;;5.93;5.32;;;;;;;;;;5015972;28;20144;-64
2023/09/07 04:59:39;;;;;;;7.32;6.15;;;;;;;;;;5015311;28;20026;-64
2023/09/07 05:02:04;;;;;;;6.43;5.82;;;;;;;;;;4999458;28;20521;-64
2023/09/07 05:04:30;;;;;;;7.97;5.68;;;;;;;;;;5015549;28;20108;-64
2023/09/07 05:06:56;;;;;;;7.55;5.75;;;;;;;;;;5014798;28;20033;-64
2023/09/07 05:09:23;;;;;;;8.70;5.95;;;;;;;;;;5032762;28;20048;-64
2023/09/07 05:11:49;;;;;;;8.75;6.32;;;;;;;;;;5015048;28;20461;-65
2023/09/07 05:14:14;;;;;;;8.82;5.80;;;;;;;;;;5014141;28;20048;-66
2023/09/07 05:16:42;;;;;;;9.93;5.95;;;;;;;;;;5013093;28;20022;-65
2023/09/07 05:19:07;;;;;;;9.73;6.00;;;;;;;;;;5011539;28;20062;-65
2023/09/07 05:21:32;;;;;;;6.75;5.90;;;;;;;;;;4995185;28;20446;-65
2023/09/07 05:23:58;;;;;;;9.27;6.07;;;;;;;;;;4998961;28;20056;-60
2023/09/07 05:26:24;;;;;;;6.93;6.03;;;;;;;;;;5004347;28;20050;-60
2023/09/07 05:28:50;;;;;;;8.85;5.97;;;;;;;;;;5003522;28;20045;-59
2023/09/07 05:31:16;;;;;;;8.68;5.63;;;;;;;;;;5015314;28;20458;-60
2023/09/07 05:33:41;;;;;;;7.65;6.13;;;;;;;;;;5014688;28;20448;-57
2023/09/07 05:36:07;;;;;;;6.53;5.82;;;;;;;;;;5015430;28;20036;-57
2023/09/07 05:38:32;;;;;;;8.75;6.25;;;;;;;;;;4999371;28;20034;-58
2023/09/07 05:40:58;;;;;;;7.25;6.18;;;;;;;;;;5033564;28;20029;-57
2023/09/07 05:43:23;;;;;;;10.02;6.10;;;;;;;;;;5015592;28;20432;-57
2023/09/07 05:45:49;;;;;;;9.40;6.50;;;;;;;;;;5015579;28;20064;-57
2023/09/07 05:48:18;;;;;;;9.25;6.38;;;;;;;;;;4997433;28;20036;-57
2023/09/07 05:50:44;;;;;;;10.35;6.55;;;;;;;;;;5013639;28;20057;-57
2023/09/07 05:53:09;;;;;;;8.60;6.07;;;;;;;;;;5013832;28;20036;-57
2023/09/07 05:55:35;;;;;;;11.73;6.75;;;;;;;;;;5013862;28;20013;-57
2023/09/07 05:58:04;;;;;;;10.57;6.63;;;;;;;;;;5013959;28;20113;-57
2023/09/07 06:00:30;;;;;;;8.57;6.20;;;;;;;;;;5014904;28;20084;-57
2023/09/07 06:02:56;;;;;;;8.00;6.13;;;;;;;;;;5032720;28;20025;-57
2023/09/07 06:05:22;;;;;;;8.35;6.85;;;;;;;;;;5015407;28;20028;-57
2023/09/07 06:07:48;;;;;;;9.00;6.65;;;;;;;;;;5015201;28;20178;-57
2023/09/07 06:10:17;;;;;;;9.38;6.65;;;;;;;;;;5018056;28;20389;-57
2023/09/07 06:12:43;;;;;;;7.60;6.35;;;;;;;;;;5019697;28;20383;-57
2023/09/07 06:15:09;;;;;;;7.57;6.13;;;;;;;;;;5019083;28;20021;-57
2023/09/07 06:17:34;;;;;;;8.02;5.93;;;;;;;;;;5019003;28;20504;-57
2023/09/07 06:20:00;;;;;;;9.77;6.05;;;;;;;;;;5002552;28;20018;-57
2023/09/07 06:22:26;;;;;;;6.80;5.53;;;;;;;;;;5018940;28;20053;-57
2023/09/07 06:24:51;;;;;;;8.18;5.65;;;;;;;;;;5018860;28;20144;-57
2023/09/07 06:27:17;;;;;;;8.65;5.82;;;;;;;;;;5018832;28;20056;-57
2023/09/07 06:29:43;;;;;;;9.68;6.07;;;;;;;;;;5018709;28;20469;-57
2023/09/07 06:32:08;;;;;;;6.47;5.13;;;;;;;;;;5018738;28;20029;-57
2023/09/07 06:34:34;;;;;;;7.65;5.60;;;;;;;;;;5018697;28;20469;-57
2023/09/07 06:36:59;;;;;;;8.35;5.13;;;;;;;;;;5019203;28;20445;-57
2023/09/07 06:39:25;;;;;;;8.00;6.20;;;;;;;;;;5018584;28;20034;-57
2023/09/07 06:41:50;;;;;;;9.38;5.70;;;;;;;;;;5018473;28;20036;-57
2023/09/07 06:44:19;;;;;;;5.72;5.10;;;;;;;;;;5018688;28;20495;-57
2023/09/07 06:46:45;;;;;;;6.10;5.47;;;;;;;;;;5018431;28;20030;-57
2023/09/07 06:49:10;;;;;;;6.57;4.95;;;;;;;;;;5018363;28;20397;-57
2023/09/07 06:51:36;;;;;;;7.60;5.25;;;;;;;;;;5018888;28;20056;-57
2023/09/07 06:54:03;;;;;;;8.65;5.40;;;;;;;;;;5036063;28;20021;-57
2023/09/07 06:56:31;;;;;;;7.65;5.40;;;;;;;;;;5036265;28;20033;-57
2023/09/07 06:58:56;;;;;;;6.68;5.60;;;;;;;;;;5035958;28;20040;-57
2023/09/07 07:01:23;;;;;;;6.28;5.03;;;;;;;;;;5018185;28;20030;-57
2023/09/07 07:03:49;;;;;;;10.13;5.20;;;;;;;;;;5018117;28;20025;-57
2023/09/07 07:06:15;;;;;;;7.47;5.65;;;;;;;;;;5017931;28;20092;-57
2023/09/07 07:08:40;;;;;;;8.10;4.80;;;;;;;;;;5018052;28;20500;-57
2023/09/07 07:11:06;;;;;;;5.95;5.03;;;;;;;;;;5017967;28;20116;-57
2023/09/07 07:13:33;;;;;;;5.35;4.63;;;;;;;;;;5018189;28;20029;-57
2023/09/07 07:15:59;;;;;;;7.15;4.90;;;;;;;;;;5017882;28;20081;-57
2023/09/07 07:18:24;;;;;;;12.98;7.13;;;;;;;;;;5017878;28;20025;-57
2023/09/07 07:20:50;;;;;;;16.00;6.88;;;;;;;;;;5035675;28;20037;-57
2023/09/07 07:23:17;;;;;;;15.38;6.47;;;;;;;;;;5017750;28;20582;-57
2023/09/07 07:25:42;;;;;;;9.00;6.40;;;;;;;;;;5017755;28;20069;-57
2023/09/07 07:28:07;;;;;;;6.65;5.22;;;;;;;;;;5017494;28;20029;-57
2023/09/07 07:30:34;;;;;;;6.38;5.03;;;;;;;;;;5017528;28;20013;-57
2023/09/07 07:32:59;;;;;;;5.03;4.60;;;;;;;;;;5035547;28;20076;-57
2023/09/07 07:35:25;;;;;;;5.78;5.13;;;;;;;;;;5017560;28;20025;-57
2023/09/07 07:37:51;;;;;;;7.57;5.82;;;;;;;;;;5017459;28;20034;-57
2023/09/07 07:40:17;;;;;;;5.45;4.95;;;;;;;;;;5018532;28;20025;-57
2023/09/07 07:42:43;;;;;;;6.28;4.97;;;;;;;;;;5017683;28;20029;-57
2023/09/07 07:45:09;;;;;;;6.28;4.72;;;;;;;;;;5035652;28;20052;-57
2023/09/07 07:47:35;;;;;;;5.18;4.68;;;;;;;;;;5017331;28;20029;-57
2023/09/07 07:50:00;;;;;;;6.93;5.00;;;;;;;;;;5017167;28;20022;-57
2023/09/07 07:52:26;;;;;;;4.85;4.30;;;;;;;;;;5017289;28;20468;-57
2023/09/07 07:55:12;;;;;;;5.40;4.90;;;;;;;;;;5017154;28;20048;-57
2023/09/07 07:58:01;;;;;;;5.68;4.97;;;;;;;;;;5034879;28;20030;-57
2023/09/07 08:00:26;;;;;;;5.78;4.55;;;;;;;;;;5016997;28;20025;-57
2023/09/07 08:02:53;;;;;;;34.67;6.10;;;;;;;;;;5017043;28;20016;-57
2023/09/07 08:05:19;;;;;;;132.40;10.18;;;;;;;;;;5017554;28;20034;-57
2023/09/07 08:07:44;;;;;;;8.77;5.47;;;;;;;;;;5016744;28;20436;-57
2023/09/07 08:10:09;;;;;;;6.97;5.80;;;;;;;;;;5016831;28;20037;-57
2023/09/07 08:12:35;;;;;;;4.50;4.10;;;;;;;;;;5035115;28;20028;-57
2023/09/07 08:15:01;;;;;;;4.10;3.78;;;;;;;;;;5034512;28;20053;-57
2023/09/07 08:17:26;;;;;;;4.60;4.07;;;;;;;;;;5034487;28;20017;-57
2023/09/07 08:19:56;;;;;;;5.55;4.18;;;;;;;;;;5016682;28;20033;-57
2023/09/07 08:22:22;;;;;;;4.40;3.78;;;;;;;;;;5016942;28;20026;-57
2023/09/07 08:24:50;;;;;;;11.88;8.55;;;;;;;;;;5016603;28;20025;-57
2023/09/07 08:27:18;;;;;;;5.70;4.80;;;;;;;;;;5016599;28;20029;-57
2023/09/07 08:29:51;;;;;;;7.10;6.50;;;;;;;;;;5016734;28;20032;-57
2023/09/07 08:32:17;;;;;;;4.82;4.43;;;;;;;;;;5033685;28;20370;-57
2023/09/07 08:34:42;;;;;;;5.35;4.10;;;;;;;;;;5034167;28;20021;-57
2023/09/07 08:37:11;;;;;;;5.75;3.75;;;;;;;;;;5034659;28;20032;-57
2023/09/07 08:39:36;;;;;;;4.70;4.25;;;;;;;;;;5034396;28;20021;-57
2023/09/07 08:42:02;;;;;;;5.93;3.90;;;;;;;;;;5034052;28;20457;-57
2023/09/07 08:44:28;;;;;;;3.97;3.53;;;;;;;;;;5034074;28;20029;-57
2023/09/07 08:46:54;;;;;;;4.80;4.07;;;;;;;;;;5033943;28;20500;-57
2023/09/07 08:49:20;;;;;;;4.38;3.97;;;;;;;;;;5033889;28;20029;-57
2023/09/07 08:51:46;;;;;;;4.93;3.78;;;;;;;;;;5016483;28;20018;-57
2023/09/07 08:54:12;;;;;;;4.15;3.85;;;;;;;;;;5034121;28;20026;-57
2023/09/07 08:56:37;;;;;;;5.22;3.83;;;;;;;;;;5034080;28;20021;-57
2023/09/07 08:59:04;;;;;;;5.13;4.35;;;;;;;;;;5034051;28;20429;-57
2023/09/07 09:01:31;;;;;;;4.60;4.15;;;;;;;;;;5033769;28;20033;-57
2023/09/07 09:03:57;;;;;;;4.20;3.90;;;;;;;;;;5034005;28;20063;-57
2023/09/07 09:06:22;;;;;;;7.10;4.93;;;;;;;;;;5033510;28;20116;-57
2023/09/07 09:08:52;;;;;;;26.45;14.60;;;;;;;;;;5033645;28;20657;-57
2023/09/07 09:11:17;;;;;;;22.53;13.47;;;;;;;;;;5033596;28;20065;-57
2023/09/07 09:13:43;;;;;;;5.20;4.60;;;;;;;;;;5015935;28;20833;-57
2023/09/07 09:16:09;;;;;;;34.38;21.30;;;;;;;;;;5015966;28;20115;-57
2023/09/07 09:18:35;;;;;;;5.18;4.22;;;;;;;;;;5033832;28;20061;-57
2023/09/07 09:21:00;;;;;;;6.15;4.10;;;;;;;;;;5033505;28;20037;-57
2023/09/07 09:23:36;;;;;;;5.97;3.75;;;;;;;;;;5033754;28;20042;-57
2023/09/07 09:26:03;;;;;;;5.18;4.20;;;;;;;;;;5034012;28;20026;-57
2023/09/07 09:28:31;;;;;;;5.85;4.32;;;;;;;;;;5033773;28;20045;-57
2023/09/07 09:30:58;;;;;;;30.40;17.60;;;;;;;;;;5033385;28;20029;-57
2023/09/07 09:33:23;;;;;;;6.18;5.57;;;;;;;;;;5033741;28;20036;-57
2023/09/07 09:35:50;;;;;;;4.63;4.20;;;;;;;;;;5033955;28;20025;-57
2023/09/07 09:38:16;;;;;;;4.25;3.85;;;;;;;;;;5032325;28;20092;-57
2023/09/07 09:40:42;;;;;;;5.75;4.55;;;;;;;;;;5033659;28;20065;-57
2023/09/07 09:43:08;;;;;;;4.43;3.85;;;;;;;;;;5033632;28;20071;-57
2023/09/07 09:45:35;;;;;;;4.88;4.45;;;;;;;;;;5018482;28;20037;-57
2023/09/07 09:48:01;;;;;;;5.82;4.20;;;;;;;;;;5037319;28;20030;-57
2023/09/07 09:50:27;;;;;;;5.72;4.57;;;;;;;;;;5037189;28;20358;-57
2023/09/07 09:52:55;;;;;;;4.05;3.67;;;;;;;;;;5019590;28;20056;-57
2023/09/07 09:55:21;;;;;;;4.03;3.72;;;;;;;;;;5037430;28;20342;-57
2023/09/07 09:57:47;;;;;;;4.25;3.88;;;;;;;;;;5037373;28;20057;-57
2023/09/07 10:00:25;;;;;;;5.35;4.55;;;;;;;;;;5037064;28;20072;-57
2023/09/07 10:03:11;;;;;;;6.13;5.00;;;;;;;;;;5037291;28;20037;-57
2023/09/07 10:05:36;;;;;;;5.30;4.80;;;;;;;;;;5037535;28;20040;-57
2023/09/07 10:08:07;;;;;;;5.05;3.50;;;;;;;;;;5036715;28;20037;-57
2023/09/07 10:10:34;;;;;;;5.57;3.90;;;;;;;;;;5036812;28;20504;-57
2023/09/07 10:13:00;;;;;;;6.35;3.78;;;;;;;;;;5019172;28;20481;-57
2023/09/07 10:15:26;;;;;;;5.57;3.70;;;;;;;;;;5036754;28;20021;-57
2023/09/07 10:18:10;;;;;;;4.43;4.05;;;;;;;;;;5019327;28;20022;-57
2023/09/07 10:20:56;;;;;;;4.07;3.47;;;;;;;;;;5018968;28;20068;-57
2023/09/07 10:23:22;;;;;;;3.80;3.50;;;;;;;;;;5036894;28;20048;-57
2023/09/07 10:25:48;;;;;;;6.25;3.80;;;;;;;;;;5037157;28;20221;-57
2023/09/07 10:28:24;;;;;;;3.55;3.25;;;;;;;;;;5036853;28;20017;-57
2023/09/07 10:31:13;;;;;;;3.72;3.35;;;;;;;;;;5019051;28;20155;-57
2023/09/07 10:33:38;;;;;;;4.45;3.53;;;;;;;;;;5036696;28;20026;-57
2023/09/07 10:36:04;;;;;;;6.90;4.05;;;;;;;;;;5018613;28;20026;-57
2023/09/07 10:38:31;;;;;;;4.07;3.78;;;;;;;;;;5036919;28;20014;-57
2023/09/07 10:40:57;;;;;;;4.93;3.67;;;;;;;;;;5018490;28;20477;-57
2023/09/07 10:43:33;;;;;;;3.90;3.60;;;;;;;;;;5036561;28;20385;-57
2023/09/07 10:46:00;;;;;;;4.25;3.80;;;;;;;;;;5036369;28;20072;-57
2023/09/07 10:48:26;;;;;;;6.35;3.33;;;;;;;;;;5036470;28;20033;-57
2023/09/07 10:50:51;;;;;;;5.38;3.97;;;;;;;;;;5036339;28;20033;-57
2023/09/07 10:53:30;;;;;;;4.30;4.00;;;;;;;;;;5036080;28;20484;-57
2023/09/07 10:56:02;;;;;;;4.45;3.90;;;;;;;;;;5035791;28;20466;-57
2023/09/07 10:58:29;;;;;;;4.10;3.80;;;;;;;;;;5036002;28;20029;-57
2023/09/07 11:00:55;;;;;;;5.40;4.30;;;;;;;;;;5036232;28;20057;-57
2023/09/07 11:03:20;;;;;;;4.10;3.70;;;;;;;;;;5018540;28;20134;-57
2023/09/07 11:05:46;;;;;;;4.00;3.67;;;;;;;;;;5035883;28;20029;-57
2023/09/07 11:08:11;;;;;;;6.20;3.60;;;;;;;;;;5035680;28;20456;-57
2023/09/07 11:10:37;;;;;;;3.90;3.30;;;;;;;;;;5035991;28;20037;-57
2023/09/07 11:13:06;;;;;;;6.32;3.67;;;;;;;;;;5036273;28;20057;-57
2023/09/07 11:15:33;;;;;;;3.97;3.67;;;;;;;;;;5035931;28;20104;-57
2023/09/07 11:17:59;;;;;;;4.72;3.42;;;;;;;;;;5035905;28;20132;-57
2023/09/07 11:20:24;;;;;;;4.47;4.07;;;;;;;;;;5035588;28;20484;-57
2023/09/07 11:22:50;;;;;;;4.40;4.03;;;;;;;;;;5018210;28;20057;-57
2023/09/07 11:25:15;;;;;;;4.07;3.78;;;;;;;;;;5035511;28;20408;-57
2023/09/07 11:27:41;;;;;;;3.88;3.38;;;;;;;;;;5017744;28;20034;-57
2023/09/07 11:30:07;;;;;;;4.70;3.75;;;;;;;;;;5035372;28;20450;-57
2023/09/07 11:32:33;;;;;;;6.10;3.90;;;;;;;;;;5035694;28;20052;-57
2023/09/07 11:34:59;;;;;;;3.78;3.47;;;;;;;;;;5035363;28;20362;-57
2023/09/07 11:37:25;;;;;;;3.20;2.90;;;;;;;;;;5035329;28;20076;-57
2023/09/07 11:39:50;;;;;;;4.50;3.67;;;;;;;;;;5035214;28;20087;-57
2023/09/07 11:42:16;;;;;;;4.93;4.32;;;;;;;;;;5035735;28;20017;-57
2023/09/07 11:44:41;;;;;;;3.92;3.63;;;;;;;;;;5035083;28;20029;-57
2023/09/07 11:47:06;;;;;;;4.40;4.05;;;;;;;;;;5035116;28;20042;-57
2023/09/07 11:49:32;;;;;;;4.57;3.97;;;;;;;;;;5035007;28;20026;-57
2023/09/07 11:51:58;;;;;;;3.53;3.22;;;;;;;;;;5034939;28;20456;-57
2023/09/07 11:54:23;;;;;;;3.85;3.42;;;;;;;;;;5034927;28;20014;-57
2023/09/07 11:56:48;;;;;;;3.45;2.97;;;;;;;;;;5017143;28;20116;-57
2023/09/07 11:59:15;;;;;;;3.65;3.35;;;;;;;;;;5034864;28;20076;-57
2023/09/07 12:01:41;;;;;;;4.55;3.35;;;;;;;;;;5035324;28;20038;-57
2023/09/07 12:04:06;;;;;;;4.85;3.40;;;;;;;;;;5035036;28;20091;-57
2023/09/07 12:06:32;;;;;;;4.15;3.30;;;;;;;;;;5034253;28;20038;-57
2023/09/07 12:08:58;;;;;;;3.90;3.50;;;;;;;;;;5034569;28;20043;-57
2023/09/07 12:11:23;;;;;;;3.80;3.50;;;;;;;;;;5034558;28;20021;-57
2023/09/07 12:13:49;;;;;;;3.53;3.22;;;;;;;;;;5034847;28;20037;-57
2023/09/07 12:16:14;;;;;;;3.35;3.08;;;;;;;;;;5034815;28;20032;-57
2023/09/07 12:18:40;;;;;;;4.05;3.40;;;;;;;;;;5035018;28;20017;-57
2023/09/07 12:21:05;;;;;;;4.80;3.25;;;;;;;;;;5034418;28;20036;-57
2023/09/07 12:23:30;;;;;;;4.05;3.20;;;;;;;;;;5034409;28;20033;-57
2023/09/07 12:25:56;;;;;;;3.58;3.25;;;;;;;;;;5034625;28;20064;-57
2023/09/07 12:28:21;;;;;;;5.78;3.13;;;;;;;;;;5034552;28;20114;-57
2023/09/07 12:30:48;;;;;;;4.07;3.05;;;;;;;;;;5034158;28;20033;-57
2023/09/07 12:33:14;;;;;;;3.63;2.70;;;;;;;;;;5034492;28;20028;-57
2023/09/07 12:35:39;;;;;;;3.60;3.30;;;;;;;;;;5034158;28;20385;-57
2023/09/07 12:38:04;;;;;;;3.03;2.80;;;;;;;;;;5034104;28;20025;-57
2023/09/07 12:40:30;;;;;;;6.82;3.42;;;;;;;;;;5016935;28;20043;-57
2023/09/07 12:42:55;;;;;;;3.90;3.58;;;;;;;;;;5034342;28;20064;-57
2023/09/07 12:45:20;;;;;;;4.65;3.35;;;;;;;;;;5034032;28;20026;-57
2023/09/07 12:47:46;;;;;;;4.47;3.30;;;;;;;;;;5033924;28;20036;-57
2023/09/07 12:50:12;;;;;;;4.93;3.20;;;;;;;;;;5034407;28;20041;-57
2023/09/07 12:52:37;;;;;;;3.90;3.60;;;;;;;;;;4999850;28;20099;-57
2023/09/07 12:55:06;;;;;;;3.72;3.30;;;;;;;;;;5034043;28;20117;-57
2023/09/07 12:57:31;;;;;;;4.07;3.67;;;;;;;;;;5034081;28;20112;-57
2023/09/07 12:59:56;;;;;;;5.30;3.80;;;;;;;;;;5034335;28;20129;-58
2023/09/07 13:02:22;;;;;;;3.90;3.60;;;;;;;;;;5033596;28;20029;-57
2023/09/07 13:04:47;;;;;;;4.00;3.55;;;;;;;;;;5030065;28;20037;-58
2023/09/07 13:07:13;;;;;;;3.45;3.25;;;;;;;;;;5021630;28;20037;-63
2023/09/07 13:09:38;;;;;;;3.03;2.78;;;;;;;;;;5005508;28;20080;-58
2023/09/07 13:12:04;;;;;;;4.25;3.85;;;;;;;;;;5021091;28;20040;-63
2023/09/07 13:14:29;;;;;;;3.90;3.50;;;;;;;;;;5026938;28;20027;-63
2023/09/07 13:16:55;;;;;;;3.58;3.28;;;;;;;;;;5033103;28;20033;-63
2023/09/07 13:19:20;;;;;;;3.63;2.90;;;;;;;;;;5032523;28;20014;-63
2023/09/07 13:21:45;;;;;;;3.60;3.30;;;;;;;;;;5033402;28;20127;-63
2023/09/07 13:24:11;;;;;;;3.70;3.40;;;;;;;;;;5019414;28;20014;-63
2023/09/07 13:26:36;;;;;;;6.75;3.72;;;;;;;;;;4997410;28;20034;-63
2023/09/07 13:29:02;;;;;;;3.55;3.25;;;;;;;;;;4985650;28;20048;-64
2023/09/07 13:31:27;;;;;;;3.78;3.47;;;;;;;;;;5016250;28;20024;-64
2023/09/07 13:33:53;;;;;;;6.13;3.47;;;;;;;;;;5029762;28;20109;-64
2023/09/07 13:36:18;;;;;;;3.88;3.53;;;;;;;;;;5033205;28;20041;-57
2023/09/07 13:38:43;;;;;;;3.55;3.28;;;;;;;;;;5033227;28;20047;-57
2023/09/07 13:41:09;;;;;;;4.07;3.60;;;;;;;;;;5033078;28;20087;-57
2023/09/07 13:43:34;;;;;;;7.68;3.55;;;;;;;;;;5032691;28;20091;-57
2023/09/07 13:46:00;;;;;;;4.20;3.60;;;;;;;;;;5032728;28;20022;-57
2023/09/07 13:48:25;;;;;;;2.88;2.60;;;;;;;;;;5015339;28;20033;-57
2023/09/07 13:50:50;;;;;;;3.55;3.25;;;;;;;;;;5032801;28;20026;-57
2023/09/07 13:53:16;;;;;;;3.60;3.30;;;;;;;;;;5032973;28;20049;-57
2023/09/07 13:55:43;;;;;;;4.03;3.63;;;;;;;;;;5032948;28;20116;-57
2023/09/07 13:58:09;;;;;;;4.38;3.55;;;;;;;;;;5031947;28;20026;-57
2023/09/07 14:00:34;;;;;;;3.95;3.67;;;;;;;;;;5033204;28;20095;-58
2023/09/07 14:02:59;;;;;;;5.13;4.03;;;;;;;;;;5032970;28;20061;-58
2023/09/07 14:05:25;;;;;;;5.70;4.20;;;;;;;;;;5032485;28;20040;-64
2023/09/07 14:07:50;;;;;;;4.13;3.83;;;;;;;;;;5032792;28;20042;-64
2023/09/07 14:10:16;;;;;;;4.43;4.00;;;;;;;;;;5014941;28;20045;-65
2023/09/07 14:12:44;;;;;;;5.55;4.47;;;;;;;;;;5015117;28;20028;-64
2023/09/07 14:15:12;;;;;;;4.15;3.63;;;;;;;;;;5032855;28;20038;-64
2023/09/07 14:17:37;;;;;;;7.43;4.95;;;;;;;;;;5032965;28;20091;-64
2023/09/07 14:20:08;;;;;;;5.13;4.43;;;;;;;;;;5032872;28;20021;-64
2023/09/07 14:22:34;;;;;;;4.47;4.05;;;;;;;;;;5033103;28;20440;-64
2023/09/07 14:24:59;;;;;;;4.78;4.13;;;;;;;;;;5032484;28;20033;-64
2023/09/07 14:27:26;;;;;;;5.43;4.10;;;;;;;;;;5014713;28;20030;-57
2023/09/07 14:29:52;;;;;;;4.32;3.92;;;;;;;;;;5032354;28;20430;-57
2023/09/07 14:32:17;;;;;;;3.88;3.50;;;;;;;;;;5033634;28;20164;-64
2023/09/07 14:34:43;;;;;;;4.43;4.03;;;;;;;;;;5033499;28;20095;-64
2023/09/07 14:37:08;;;;;;;5.05;3.92;;;;;;;;;;5016021;28;20128;-63
2023/09/07 14:39:35;;;;;;;4.53;4.13;;;;;;;;;;5017249;28;20087;-57
2023/09/07 14:42:02;;;;;;;4.32;3.80;;;;;;;;;;5001473;28;20414;-63